createdAt,value
2023-05-05T00:04:50.176Z,100291.44
2023-05-05T00:09:51.778Z,100284.63
2023-05-05T00:14:53.395Z,100277.84
2023-05-05T00:19:54.990Z,100267.72
2023-05-05T00:24:56.590Z,100269.09
2023-05-05T00:29:58.176Z,100265.63
2023-05-05T00:35:00.043Z,100271.34
2023-05-05T00:40:01.959Z,100258.56
2023-05-05T00:45:04.175Z,100258.50
2023-05-05T00:50:09.486Z,100254.97
2023-05-05T00:55:11.448Z,100253.41
2023-05-05T01:00:13.588Z,100248.34
2023-05-05T01:05:16.313Z,100251.59
2023-05-05T01:10:54.481Z,100245.56
2023-05-05T01:16:07.885Z,100242.09
2023-05-05T01:21:27.693Z,100237.81
2023-05-05T01:26:52.552Z,100242.75
2023-05-05T01:31:57.266Z,100241.78
2023-05-05T01:37:08.294Z,100239.94
2023-05-05T01:42:15.004Z,100240.59
2023-05-05T01:47:19.545Z,100248.00
2023-05-05T01:52:22.679Z,100251.09
2023-05-05T01:57:26.500Z,100244.00
2023-05-05T02:02:28.974Z,100233.38
2023-05-05T02:07:33.666Z,100235.59
2023-05-05T02:12:37.229Z,100227.19
2023-05-05T02:17:42.693Z,100222.97
2023-05-05T02:22:44.624Z,100239.47
2023-05-05T02:27:48.463Z,100241.22
2023-05-05T02:32:58.900Z,100233.63
2023-05-05T02:38:05.587Z,100225.19
2023-05-05T02:43:18.173Z,100221.72
2023-05-05T02:48:21.066Z,100219.03
2023-05-05T02:53:27.121Z,100205.38
2023-05-05T02:58:46.174Z,100208.59
2023-05-05T03:04:14.762Z,100209.25
2023-05-05T03:09:27.739Z,100215.28
2023-05-05T03:14:38.896Z,100223.81
2023-05-05T03:19:43.129Z,100223.88
2023-05-05T03:24:49.939Z,100217.72
2023-05-05T03:29:52.521Z,100238.44
2023-05-05T03:34:54.564Z,100227.66
2023-05-05T03:40:01.324Z,100224.09
2023-05-05T03:45:03.605Z,100234.22
2023-05-05T03:50:06.885Z,100239.09
2023-05-05T03:55:10.688Z,100230.63
2023-05-05T04:00:12.869Z,100238.78
2023-05-05T04:05:17.378Z,100233.88
2023-05-05T04:10:19.197Z,100234.31
2023-05-05T04:15:21.642Z,100241.06
2023-05-05T04:20:23.588Z,100227.84
2023-05-05T04:25:25.573Z,100240.84
2023-05-05T04:30:27.738Z,100225.84
2023-05-05T04:35:29.645Z,100230.72
2023-05-05T04:40:32.100Z,100236.47
2023-05-05T04:45:34.349Z,100240.41
2023-05-05T04:50:37.105Z,100243.97
2023-05-05T04:55:39.574Z,100240.84
2023-05-05T05:00:41.409Z,100239.44
2023-05-05T05:05:43.328Z,100241.19
2023-05-05T05:10:45.323Z,100245.44
2023-05-05T05:15:47.028Z,100257.06
2023-05-05T05:20:48.778Z,100253.41
2023-05-05T05:25:51.172Z,100253.97
2023-05-05T05:30:55.108Z,100252.56
2023-05-05T05:35:58.179Z,100256.50
2023-05-05T05:41:05.208Z,100268.91
2023-05-05T05:46:09.439Z,100253.38
2023-05-05T05:51:13.591Z,100254.31
2023-05-05T05:56:15.711Z,100249.84
2023-05-05T06:01:17.996Z,100259.50
2023-05-05T06:06:20.603Z,100255.13
2023-05-05T06:11:22.504Z,100253.97
2023-05-05T06:16:24.434Z,100258.84
2023-05-05T06:21:27.844Z,100249.41
2023-05-05T06:26:31.454Z,100256.31
2023-05-05T06:31:33.259Z,100261.22
2023-05-05T06:36:35.743Z,100266.91
2023-05-05T06:41:37.643Z,100264.63
2023-05-05T06:46:39.431Z,100261.06
2023-05-05T06:51:42.733Z,100258.38
2023-05-05T06:56:44.628Z,100258.75
2023-05-05T07:01:46.279Z,100266.66
2023-05-05T07:06:47.867Z,100258.53
2023-05-05T07:11:49.557Z,100264.19
2023-05-05T07:16:51.637Z,100268.53
2023-05-05T07:21:53.421Z,100271.81
2023-05-05T07:26:55.958Z,100252.31
2023-05-05T07:31:58.569Z,100257.34
2023-05-05T07:37:00.453Z,100251.09
2023-05-05T07:42:02.447Z,100251.47
2023-05-05T07:47:04.097Z,100238.78
2023-05-05T07:52:05.928Z,100245.44
2023-05-05T07:57:07.519Z,100236.03
2023-05-05T08:02:15.108Z,100234.81
2023-05-05T08:07:17.019Z,100232.44
2023-05-05T08:12:19.442Z,100231.16
2023-05-05T08:17:21.066Z,100215.88
2023-05-05T08:22:22.757Z,100209.94
2023-05-05T08:27:24.350Z,100212.53
2023-05-05T08:32:27.825Z,100201.88
2023-05-05T08:37:31.050Z,100203.88
2023-05-05T08:42:38.460Z,100201.69
2023-05-05T08:47:42.047Z,100189.59
2023-05-05T08:52:50.699Z,100198.22
2023-05-05T08:57:57.309Z,100192.00
2023-05-05T09:03:01.185Z,100189.47
2023-05-05T09:08:05.525Z,100182.72
2023-05-05T09:13:07.439Z,100179.53
2023-05-05T09:18:09.605Z,100177.31
2023-05-05T09:23:16.838Z,100161.59
2023-05-05T09:28:18.611Z,100153.44
2023-05-05T09:33:30.523Z,100157.28
2023-05-05T09:38:32.264Z,100152.56
2023-05-05T09:43:51.849Z,100140.31
2023-05-05T09:48:53.992Z,100146.88
2023-05-05T09:53:55.637Z,100145.06
2023-05-05T09:59:11.884Z,100145.50
2023-05-05T10:04:42.973Z,100155.97
2023-05-05T10:09:44.628Z,100162.03
2023-05-05T10:14:46.501Z,100165.66
2023-05-05T10:19:52.193Z,100155.84
2023-05-05T10:25:01.693Z,100158.44
2023-05-05T10:30:07.733Z,100155.63
2023-05-05T10:35:11.304Z,100153.28
2023-05-05T10:40:14.746Z,100134.91
2023-05-05T10:45:16.790Z,100134.63
2023-05-05T10:50:31.372Z,100129.00
2023-05-05T10:56:02.456Z,100126.34
2023-05-05T11:01:06.061Z,100107.88
2023-05-05T11:06:07.778Z,100112.03
2023-05-05T11:11:10.879Z,100102.53
2023-05-05T11:16:45.814Z,100097.59
2023-05-05T11:22:00.757Z,100090.13
2023-05-05T11:27:03.453Z,100089.13
2023-05-05T11:32:13.065Z,100088.13
2023-05-05T11:37:16.209Z,100083.31
2023-05-05T11:42:25.763Z,100085.63
2023-05-05T11:47:29.217Z,100069.78
2023-05-05T11:52:30.914Z,100062.91
2023-05-05T11:57:32.588Z,100056.06
2023-05-05T12:02:34.719Z,100047.91
2023-05-05T12:07:36.401Z,100056.06
2023-05-05T12:12:40.547Z,100049.53
2023-05-05T12:17:46.004Z,100050.56
2023-05-05T12:22:48.129Z,100047.53
2023-05-05T12:27:53.226Z,100042.41
2023-05-05T12:33:07.925Z,100039.75
2023-05-05T12:38:09.731Z,100037.78
2023-05-05T12:43:44.207Z,100034.06
2023-05-05T12:48:48.358Z,100029.41
2023-05-05T12:54:08.409Z,100018.31
2023-05-05T12:59:22.301Z,100020.25
2023-05-05T13:04:25.689Z,99990.34
2023-05-05T13:09:35.827Z,99990.94
2023-05-05T13:14:39.932Z,99991.25
2023-05-05T13:19:46.516Z,99978.31
2023-05-05T13:24:52.453Z,99975.94
2023-05-05T13:29:54.562Z,99975.47
2023-05-05T13:34:56.284Z,99974.22
2023-05-05T13:40:00.236Z,99959.94
2023-05-05T13:45:01.861Z,99947.34
2023-05-05T13:50:03.880Z,99946.94
2023-05-05T13:55:06.301Z,99938.28
2023-05-05T14:00:09.007Z,99938.59
2023-05-05T14:05:10.855Z,99938.22
2023-05-05T14:10:13.062Z,99922.69
2023-05-05T14:15:14.920Z,99917.09
2023-05-05T14:20:16.553Z,99918.53
2023-05-05T14:25:18.231Z,99910.38
2023-05-05T14:30:19.869Z,99902.22
2023-05-05T14:35:21.480Z,99908.66
2023-05-05T14:40:23.596Z,99897.22
2023-05-05T14:45:26.340Z,99897.31
2023-05-05T14:50:28.180Z,99898.09
2023-05-05T14:55:29.830Z,99893.56
2023-05-05T15:00:31.520Z,99896.44
2023-05-05T15:05:33.365Z,99896.88
2023-05-05T15:10:34.937Z,99905.28
2023-05-05T15:15:36.930Z,99896.56
2023-05-05T15:20:38.582Z,99893.63
2023-05-05T15:25:40.385Z,99901.09
2023-05-05T15:30:41.965Z,99906.03
2023-05-05T15:35:43.594Z,99903.94
2023-05-05T15:40:47.713Z,99891.16
2023-05-05T15:45:51.772Z,99890.91
2023-05-05T15:50:53.417Z,99887.09
2023-05-05T15:55:55.078Z,99888.59
2023-05-05T16:00:56.684Z,99888.09
2023-05-05T16:05:58.444Z,99890.88
2023-05-05T16:11:00.067Z,99888.25
2023-05-05T16:16:01.750Z,99884.22
2023-05-05T16:21:03.421Z,99878.13
2023-05-05T16:26:05.166Z,99884.69
2023-05-05T16:31:06.972Z,99883.34
2023-05-05T16:36:12.405Z,99878.84
2023-05-05T16:41:14.193Z,99882.41
2023-05-05T16:46:16.255Z,99884.22
2023-05-05T16:51:18.351Z,99882.34
2023-05-05T16:56:21.149Z,99883.38
2023-05-05T17:01:22.895Z,99883.09
2023-05-05T17:06:24.560Z,99883.97
2023-05-05T17:11:26.709Z,99881.31
2023-05-05T17:16:28.459Z,99880.38
2023-05-05T17:21:30.116Z,99882.63
2023-05-05T17:26:31.820Z,99871.16
2023-05-05T17:31:33.497Z,99880.38
2023-05-05T17:36:35.494Z,99883.50
2023-05-05T17:41:37.868Z,99891.25
2023-05-05T17:46:40.378Z,99889.38
2023-05-05T17:51:41.986Z,99896.53
2023-05-05T17:56:43.542Z,99897.09
2023-05-05T18:01:45.263Z,99892.53
2023-05-05T18:06:47.129Z,99897.28
2023-05-05T18:11:52.064Z,99903.06
2023-05-05T18:16:54.375Z,99902.63
2023-05-05T18:21:57.450Z,99906.63
2023-05-05T18:26:59.096Z,99915.88
2023-05-05T18:32:01.932Z,99930.88
2023-05-05T18:37:03.647Z,99934.56
2023-05-05T18:42:05.809Z,99944.03
2023-05-05T18:47:08.157Z,99940.72
2023-05-05T18:52:10.171Z,99944.28
2023-05-05T18:57:11.861Z,99949.66
2023-05-05T19:02:13.519Z,99940.63
2023-05-05T19:07:27.660Z,99941.03
2023-05-05T19:12:33.452Z,99943.81
2023-05-05T19:17:35.116Z,99949.13
2023-05-05T19:22:36.786Z,99949.41
2023-05-05T19:27:38.795Z,99942.00
2023-05-05T19:32:40.620Z,99943.13
2023-05-05T19:37:42.273Z,99946.69
2023-05-05T19:42:43.884Z,99943.63
2023-05-05T19:47:46.651Z,99940.69
2023-05-05T19:52:48.938Z,99940.97
2023-05-05T19:57:50.643Z,99932.81
2023-05-05T20:02:52.518Z,99933.84
2023-05-05T20:07:54.245Z,99933.09
2023-05-05T20:12:56.108Z,99935.88
2023-05-05T20:17:57.922Z,99921.63
2023-05-05T20:22:59.598Z,99917.66
2023-05-05T20:28:01.427Z,99916.09
2023-05-05T20:33:03.321Z,99912.00
2023-05-05T20:38:05.308Z,99907.84
2023-05-05T20:43:06.929Z,99903.81
2023-05-05T20:48:11.085Z,99897.13
2023-05-05T20:53:16.070Z,99902.28
2023-05-05T20:58:17.913Z,99895.63
2023-05-05T21:03:19.552Z,99887.28
2023-05-05T21:08:21.234Z,99895.84
2023-05-05T21:13:23.193Z,99900.97
2023-05-05T21:18:27.214Z,99899.34
2023-05-05T21:23:28.849Z,99884.16
2023-05-05T21:28:30.549Z,99885.84
2023-05-05T21:33:32.171Z,99889.22
2023-05-05T21:38:34.131Z,99887.50
2023-05-05T21:43:35.787Z,99879.16
2023-05-05T21:48:39.005Z,99885.16
2023-05-05T21:53:40.907Z,99875.94
2023-05-05T21:58:42.727Z,99871.78
2023-05-05T22:03:44.459Z,99891.22
2023-05-05T22:08:50.314Z,99879.44
2023-05-05T22:13:51.940Z,99885.38
2023-05-05T22:18:53.588Z,99892.25
2023-05-05T22:23:55.180Z,99890.59
2023-05-05T22:28:57.079Z,99888.94
2023-05-05T22:33:59.048Z,99876.53
2023-05-05T22:39:00.995Z,99875.66
2023-05-05T22:44:02.682Z,99862.13
2023-05-05T22:49:04.599Z,99849.47
2023-05-05T22:54:06.351Z,99852.91
2023-05-05T22:59:08.170Z,99841.09
2023-05-05T23:04:10.459Z,99830.97
2023-05-05T23:09:12.746Z,99830.97
2023-05-05T23:14:14.438Z,99825.06
2023-05-05T23:19:16.028Z,99829.25
2023-05-05T23:24:17.629Z,99825.88
2023-05-05T23:29:19.716Z,99820.00
2023-05-05T23:34:21.379Z,99815.84
2023-05-05T23:39:22.978Z,99808.25
2023-05-05T23:44:24.858Z,99809.13
2023-05-05T23:49:26.569Z,99806.63
2023-05-05T23:54:28.150Z,99795.69
2023-05-05T23:59:30.102Z,99802.47
